Ellsworth, KS (67439)

10:14 AM CDT on August 27, 2016 (GMT -0500)
NonFedAWOS | | Change Station

Elev 1614 ft 38.75 °N, 98.23 °W | Updated 38 minutes ago

Clear
Clear
66 °F
Feels Like 66 °F
N
0
Wind Variable Wind from North
Gusts 0.0 mph

Today
High -- | Low -- °F
--% Chance of Precip.
Yesterday
High -- | Low -- °F
Precip. -- in
Pressure 30.02 in
Visibility 10.0 miles
Clouds Clear
Dew Point 66 °F
Humidity 100%
Rainfall in
Snow Depth Not available.
6:58 AM 8:09 PM
Waning Crescent, 24% visible
METAR KSLN 271453Z 20006KT 10SM CLR 22/19 A3005 RMK AO2 SLP164 60000 T02220189 51012
Pressure 30.02 in
Visibility 10.0 miles
Clouds Clear
Dew Point 66 °F
Humidity 100%
Rainfall in
Snow Depth Not available.
6:58 AM 8:09 PM
Waning Crescent, 24% visible
METAR KSLN 271453Z 20006KT 10SM CLR 22/19 A3005 RMK AO2 SLP164 60000 T02220189 51012

10-Day Weather Forecast

Almanac

Astronomy

Aug. 27, 2016 Rise Set
Actual Time
Civil Twilight
Nautical Twilight
Astronomical Twilight
Moon
Length of Visible Light
Length of Day
Tomorrow will be .
, % of the Moon is Illuminated

Today's Extremes

State Highs State Lows

Community

WunderPhotos

Upload Photos

1,935,354 photos uploaded!

WunderBlog® & News

Nearby

Air Quality

  Air Quality AQ Index Pollutant
Not available.

Snow Depth

Station Depth Elevation

Earthquake Activity

City Distance Mag. Time & Date
Minimum magnitude displayed is 2.5.

Coastal Water Temperatures

Place Temperature

Stations

Nearby Weather Stations

Station Location Temp. Windchill Dew Point Humidity Wind Precip. Elev Updated Type
                   

Watches & Warnings

There are currently no watches in effect.